Terminal Aerodrome Forecast
Issued by NWS

Home | Current Version | Previous Version | Text Only | Print | Product List | Glossary On
Versions: 1 2 3 4 5 6 7 8 9 10 11 12 13 14 15 16 17 18 19
000
FTUS43 KIND 302300
TAFBMG
TAF
KBMG 302320Z 0100/0124 27005KT P6SM VCTS BKN040CB
      TEMPO 0100/0102 VRB10G25KT 5SM -TSRA BR BKN040CB
     FM010200 VRB03KT P6SM SCT050 BKN250
      TEMPO 0109/0113 3SM BR
     FM011700 24005KT P6SM BKN040
      AMD LTD TO CLD VIS AND WIND 0101/0113=

USA.gov is the U.S. government's official web portal to all federal, state and local government web resources and services.